createdAt,value
2022-11-25T00:00:32.227Z,5.15
2022-11-25T00:05:56.216Z,5.10
2022-11-25T00:11:25.254Z,5.00
2022-11-25T00:16:50.431Z,4.97
2022-11-25T00:22:15.277Z,4.88
2022-11-25T00:27:42.271Z,4.85
2022-11-25T00:33:07.247Z,4.84
2022-11-25T00:38:25.265Z,4.81
2022-11-25T00:44:05.261Z,4.74
2022-11-25T00:49:30.263Z,4.70
2022-11-25T00:54:54.259Z,4.60
2022-11-25T01:00:23.278Z,4.56
2022-11-25T01:05:48.378Z,4.53
2022-11-25T01:11:16.304Z,4.45
2022-11-25T01:16:43.310Z,4.37
2022-11-25T01:22:14.301Z,4.32
2022-11-25T01:27:39.304Z,4.31
2022-11-25T01:33:06.273Z,4.28
2022-11-25T01:38:31.315Z,4.19
2022-11-25T01:43:56.288Z,4.14
2022-11-25T01:49:27.297Z,4.07
2022-11-25T01:54:56.277Z,3.96
2022-11-25T02:00:23.282Z,3.88
2022-11-25T02:05:58.288Z,3.78
2022-11-25T02:11:31.319Z,3.68
2022-11-25T02:16:56.395Z,3.63
2022-11-25T02:22:30.290Z,3.57
2022-11-25T02:28:01.297Z,3.53
2022-11-25T02:33:28.800Z,3.50
2022-11-25T02:38:57.322Z,3.48
2022-11-25T02:44:27.299Z,3.45
2022-11-25T02:49:52.311Z,3.44
2022-11-25T02:55:17.381Z,3.39
2022-11-25T03:00:45.401Z,3.37
2022-11-25T03:06:10.363Z,3.34
2022-11-25T03:11:54.303Z,3.32
2022-11-25T03:17:22.330Z,3.29
2022-11-25T03:22:46.362Z,3.28
2022-11-25T03:28:12.375Z,3.25
2022-11-25T03:33:40.300Z,3.21
2022-11-25T03:39:05.320Z,3.20
2022-11-25T03:44:29.316Z,3.20
2022-11-25T03:49:57.345Z,3.15
2022-11-25T03:55:23.374Z,3.13
2022-11-25T04:00:49.385Z,3.14
2022-11-25T04:06:16.383Z,3.16
2022-11-25T04:11:56.348Z,3.17
2022-11-25T04:17:30.453Z,3.17
2022-11-25T04:22:58.346Z,3.14
2022-11-25T04:28:24.482Z,3.14
2022-11-25T04:33:52.530Z,3.09
2022-11-25T04:39:20.355Z,3.04
2022-11-25T04:45:14.183Z,3.01
2022-11-25T04:50:36.378Z,2.94
2022-11-25T04:56:07.464Z,2.89
2022-11-25T05:01:34.522Z,2.83
2022-11-25T05:07:14.459Z,2.84
2022-11-25T05:12:50.433Z,2.81
2022-11-25T05:18:15.373Z,2.77
2022-11-25T05:23:39.464Z,2.71
2022-11-25T05:29:07.393Z,2.69
2022-11-25T05:34:32.833Z,2.66
2022-11-25T05:39:59.391Z,2.66
2022-11-25T05:45:27.376Z,2.64
2022-11-25T05:50:52.398Z,2.62
2022-11-25T05:56:20.451Z,2.64
2022-11-25T06:02:14.466Z,2.67
2022-11-25T06:07:38.463Z,2.67
2022-11-25T06:13:03.416Z,2.69
2022-11-25T06:18:33.389Z,2.74
2022-11-25T06:23:59.383Z,2.76
2022-11-25T06:29:24.386Z,2.74
2022-11-25T06:34:52.409Z,2.73
2022-11-25T06:40:43.394Z,2.73
2022-11-25T06:46:13.485Z,2.74
2022-11-25T06:51:47.405Z,2.72
2022-11-25T06:57:12.404Z,2.71
2022-11-25T07:02:42.887Z,2.75
2022-11-25T07:08:13.447Z,2.81
2022-11-25T07:13:38.543Z,2.83
2022-11-25T07:19:03.555Z,2.85
2022-11-25T07:24:32.589Z,2.91
2022-11-25T07:30:41.205Z,2.94
2022-11-25T07:35:42.400Z,3.04
2022-11-25T07:41:16.413Z,3.06
2022-11-25T07:46:43.497Z,3.20
2022-11-25T07:52:09.449Z,3.26
2022-11-25T07:57:36.465Z,3.38
2022-11-25T08:03:01.838Z,3.49
2022-11-25T08:08:26.437Z,3.58
2022-11-25T08:13:54.468Z,3.70
2022-11-25T08:19:21.946Z,3.80
2022-11-25T08:24:48.442Z,3.86
2022-11-25T08:30:16.816Z,3.96
2022-11-25T08:35:44.489Z,4.08
2022-11-25T08:41:09.453Z,4.19
2022-11-25T08:46:40.606Z,4.31
2022-11-25T08:52:06.276Z,4.40
2022-11-25T08:57:31.482Z,4.53
2022-11-25T09:02:58.532Z,4.68
2022-11-25T09:08:24.464Z,4.81
2022-11-25T09:13:51.085Z,4.96
2022-11-25T09:19:18.474Z,5.11
2022-11-25T09:24:42.479Z,5.31
2022-11-25T09:30:07.530Z,5.44
2022-11-25T09:35:35.464Z,5.61
2022-11-25T09:41:05.613Z,5.74
2022-11-25T09:46:53.526Z,5.86
2022-11-25T09:52:31.487Z,6.02
2022-11-25T09:58:10.483Z,6.15
2022-11-25T10:03:42.577Z,6.23
2022-11-25T10:09:13.520Z,6.29
2022-11-25T10:14:45.485Z,6.37
2022-11-25T10:20:19.737Z,6.45
2022-11-25T10:25:49.567Z,6.57
2022-11-25T10:31:20.585Z,6.64
2022-11-25T10:36:50.484Z,6.76
2022-11-25T10:42:20.512Z,6.86
2022-11-25T10:47:54.603Z,6.98
2022-11-25T10:53:28.666Z,7.11
2022-11-25T10:58:56.525Z,7.26
2022-11-25T11:04:27.517Z,7.36
2022-11-25T11:09:52.634Z,7.49
2022-11-25T11:15:36.524Z,7.60
2022-11-25T11:21:04.940Z,7.68
2022-11-25T11:26:38.553Z,7.72
2022-11-25T11:32:09.520Z,7.77
2022-11-25T11:37:50.524Z,7.84
2022-11-25T11:43:45.532Z,7.93
2022-11-25T11:49:30.592Z,8.06
2022-11-25T11:55:01.518Z,8.13
2022-11-25T12:00:35.553Z,8.21
2022-11-25T12:06:06.838Z,8.31
2022-11-25T12:11:36.570Z,8.41
2022-11-25T12:17:07.554Z,8.43
2022-11-25T12:22:42.930Z,8.41
2022-11-25T12:28:11.536Z,8.42
2022-11-25T12:33:43.567Z,8.41
2022-11-25T12:39:15.594Z,8.36
2022-11-25T12:44:46.609Z,8.37
2022-11-25T12:50:11.567Z,8.37
2022-11-25T12:55:40.602Z,8.42
2022-11-25T13:01:38.971Z,8.35
2022-11-25T13:07:20.625Z,8.35
2022-11-25T13:12:59.821Z,8.24
2022-11-25T13:18:27.600Z,8.24
2022-11-25T13:24:02.612Z,8.21
2022-11-25T13:30:11.586Z,8.13
2022-11-25T13:36:02.634Z,8.11
2022-11-25T13:41:46.621Z,8.05
2022-11-25T13:47:14.295Z,8.03
2022-11-25T13:52:56.590Z,7.96
2022-11-25T13:58:42.599Z,7.92
2022-11-25T14:04:09.659Z,7.89
2022-11-25T14:09:53.670Z,7.86
2022-11-25T14:15:52.644Z,7.81
2022-11-25T14:21:22.624Z,7.73
2022-11-25T14:26:52.633Z,7.62
2022-11-25T14:32:22.605Z,7.46
2022-11-25T14:37:53.622Z,7.21
2022-11-25T14:43:27.610Z,7.09
2022-11-25T14:48:53.775Z,6.95
2022-11-25T14:54:19.642Z,6.92
2022-11-25T14:59:48.691Z,6.90
2022-11-25T15:05:33.645Z,6.87
2022-11-25T15:11:02.639Z,6.82
2022-11-25T15:16:33.728Z,6.82
2022-11-25T15:22:23.191Z,6.72
2022-11-25T15:27:48.669Z,6.67
2022-11-25T15:33:20.670Z,6.62
2022-11-25T15:38:53.923Z,6.58
2022-11-25T15:44:28.654Z,6.56
2022-11-25T15:49:55.652Z,6.53
2022-11-25T15:55:29.758Z,6.52
2022-11-25T16:00:54.712Z,6.52
2022-11-25T16:06:33.664Z,6.50
2022-11-25T16:12:04.730Z,6.51
2022-11-25T16:17:29.660Z,6.52
2022-11-25T16:22:56.641Z,6.50
2022-11-25T16:28:28.677Z,6.52
2022-11-25T16:33:52.661Z,6.52
2022-11-25T16:39:20.700Z,6.53
2022-11-25T16:44:46.711Z,6.53
2022-11-25T16:50:14.250Z,6.54
2022-11-25T16:55:42.805Z,6.52
2022-11-25T17:01:07.686Z,6.52
2022-11-25T17:06:34.693Z,6.48
2022-11-25T17:12:08.703Z,6.42
2022-11-25T17:17:35.899Z,6.37
2022-11-25T17:22:59.712Z,6.30
2022-11-25T17:28:30.674Z,6.20
2022-11-25T17:33:55.715Z,6.10
2022-11-25T17:39:21.718Z,6.05
2022-11-25T17:44:54.086Z,6.02
2022-11-25T17:50:30.697Z,5.95
2022-11-25T17:55:57.734Z,5.95
2022-11-25T18:01:25.822Z,5.95
2022-11-25T18:06:49.730Z,5.94
2022-11-25T18:12:30.235Z,5.91
2022-11-25T18:17:58.724Z,5.93
2022-11-25T18:23:25.858Z,5.94
2022-11-25T18:28:50.759Z,5.95
2022-11-25T18:34:17.759Z,5.95
2022-11-25T18:39:42.713Z,5.96
2022-11-25T18:45:07.743Z,5.95
2022-11-25T18:50:36.918Z,5.93
2022-11-25T18:56:02.724Z,5.96
2022-11-25T19:01:28.815Z,5.97
2022-11-25T19:06:55.760Z,6.00
2022-11-25T19:12:26.720Z,6.05
2022-11-25T19:17:50.741Z,6.00
2022-11-25T19:23:28.768Z,5.95
2022-11-25T19:28:52.771Z,5.89
2022-11-25T19:34:22.780Z,5.77
2022-11-25T19:39:51.946Z,5.75
2022-11-25T19:45:19.777Z,5.69
2022-11-25T19:50:44.924Z,5.63
2022-11-25T19:56:12.781Z,5.59
2022-11-25T20:01:42.826Z,5.55
2022-11-25T20:07:07.796Z,5.57
2022-11-25T20:12:42.775Z,5.56
2022-11-25T20:18:13.748Z,5.55
2022-11-25T20:23:44.555Z,5.47
2022-11-25T20:29:19.782Z,5.43
2022-11-25T20:34:47.615Z,5.37
2022-11-25T20:40:14.461Z,5.50
2022-11-25T20:45:41.888Z,5.65
2022-11-25T20:51:09.803Z,5.72
2022-11-25T20:56:36.771Z,5.80
2022-11-25T21:02:04.824Z,5.79
2022-11-25T21:07:30.847Z,5.81
2022-11-25T21:13:02.797Z,5.89
2022-11-25T21:18:30.838Z,5.88
2022-11-25T21:23:54.798Z,5.89
2022-11-25T21:29:23.787Z,5.82
2022-11-25T21:34:50.818Z,5.83
2022-11-25T21:40:24.837Z,5.79
2022-11-25T21:45:48.855Z,5.71
2022-11-25T21:51:18.830Z,5.62
2022-11-25T21:56:46.836Z,5.54
2022-11-25T22:02:11.836Z,5.50
2022-11-25T22:07:38.869Z,5.45
2022-11-25T22:13:10.815Z,5.38
2022-11-25T22:18:37.809Z,5.33
2022-11-25T22:24:04.862Z,5.39
2022-11-25T22:29:32.849Z,5.41
2022-11-25T22:34:57.860Z,5.40
2022-11-25T22:40:31.858Z,5.37
2022-11-25T22:45:56.907Z,5.38
2022-11-25T22:51:21.863Z,5.36
2022-11-25T22:56:49.852Z,5.35
2022-11-25T23:02:13.886Z,5.35
2022-11-25T23:07:39.021Z,5.38
2022-11-25T23:13:12.820Z,5.37
2022-11-25T23:18:41.832Z,5.39
2022-11-25T23:24:07.009Z,5.40
2022-11-25T23:29:34.859Z,5.41
2022-11-25T23:34:59.923Z,5.43
2022-11-25T23:40:30.180Z,5.44
2022-11-25T23:46:03.226Z,5.45
2022-11-25T23:51:27.860Z,5.44
2022-11-25T23:56:52.881Z,5.46
